地図

経路データ

SID SEASON NUMBER BASIN SUBBASIN NAME ISO_TIME NATURE LAT LON WMO_WIND WMO_PRES WMO_AGENCY TRACK_TYPE DIST2LAND LANDFALL IFLAG USA_AGENCY USA_ATCF_ID USA_LAT USA_LON USA_RECORD USA_STATUS USA_WIND USA_PRES USA_SSHS USA_R34_NE USA_R34_SE USA_R34_SW USA_R34_NW USA_R50_NE USA_R50_SE USA_R50_SW USA_R50_NW USA_R64_NE USA_R64_SE USA_R64_SW USA_R64_NW USA_POCI USA_ROCI USA_RMW USA_EYE TOKYO_LAT TOKYO_LON TOKYO_GRADE TOKYO_WIND TOKYO_PRES TOKYO_R50_DIR TOKYO_R50_LONG TOKYO_R50_SHORT TOKYO_R30_DIR TOKYO_R30_LONG TOKYO_R30_SHORT TOKYO_LAND CMA_LAT CMA_LON CMA_CAT CMA_WIND CMA_PRES HKO_LAT HKO_LON HKO_CAT HKO_WIND HKO_PRES NEWDELHI_LAT NEWDELHI_LON NEWDELHI_GRADE NEWDELHI_WIND NEWDELHI_PRES NEWDELHI_CI NEWDELHI_DP NEWDELHI_POCI REUNION_LAT REUNION_LON REUNION_TYPE REUNION_WIND REUNION_PRES REUNION_TNUM REUNION_CI REUNION_RMW REUNION_R34_NE REUNION_R34_SE REUNION_R34_SW REUNION_R34_NW REUNION_R50_NE REUNION_R50_SE REUNION_R50_SW REUNION_R50_NW REUNION_R64_NE REUNION_R64_SE REUNION_R64_SW REUNION_R64_NW BOM_LAT BOM_LON BOM_TYPE BOM_WIND BOM_PRES BOM_TNUM BOM_CI BOM_RMW BOM_R34_NE BOM_R34_SE BOM_R34_SW BOM_R34_NW BOM_R50_NE BOM_R50_SE BOM_R50_SW BOM_R50_NW BOM_R64_NE BOM_R64_SE BOM_R64_SW BOM_R64_NW BOM_ROCI BOM_POCI BOM_EYE BOM_POS_METHOD BOM_PRES_METHOD NADI_LAT NADI_LON NADI_CAT NADI_WIND NADI_PRES WELLINGTON_LAT WELLINGTON_LON WELLINGTON_WIND WELLINGTON_PRES DS824_LAT DS824_LON DS824_STAGE DS824_WIND DS824_PRES TD9636_LAT TD9636_LON TD9636_STAGE TD9636_WIND TD9636_PRES TD9635_LAT TD9635_LON TD9635_WIND TD9635_PRES TD9635_ROCI NEUMANN_LAT NEUMANN_LON NEUMANN_CLASS NEUMANN_WIND NEUMANN_PRES MLC_LAT MLC_LON MLC_CLASS MLC_WIND MLC_PRES USA_GUST BOM_GUST BOM_GUST_PER REUNION_GUST REUNION_GUST_PER USA_SEAHGT USA_SEARAD_NE USA_SEARAD_SE USA_SEARAD_SW USA_SEARAD_NW STORM_SPEED STORM_DIR
1923077S11123 1923 21 SI WA NOT_NAMED 1923-03-17 12:00:00 NR -10.6000 122.800 main 79 79 __________O___ -1 -10.6000 122.800 7 1 38
1923077S11123 1923 21 SI WA NOT_NAMED 1923-03-17 15:00:00 NR -10.5688 122.800 main 79 79 __________P___ -1 -10.5688 122.800 7 0 0
1923077S11123 1923 21 SI WA NOT_NAMED 1923-03-17 18:00:00 NR -10.5900 122.790 main 79 79 __________P___ -1 -10.5900 122.790 7 2 196
1923077S11123 1923 21 SI WA NOT_NAMED 1923-03-17 21:00:00 NR -10.7163 122.760 main 83 55 __________P___ -1 -10.7163 122.760 7 4 192
1923077S11123 1923 21 SI WA NOT_NAMED 1923-03-18 00:00:00 NR -11.0000 122.700 main 110 110 __________O___ -1 -11.0000 122.700 7 19 232
1923077S11123 1923 21 SI WA NOT_NAMED 1923-03-18 01:00:00 NR -11.5103 121.737 bom main 182 179 ______O___P___ -1 -13.0000 118.000 -11.1379 122.672 7 38 238
1923077S11123 1923 21 SI WA NOT_NAMED 1923-03-18 03:00:00 NR -11.9964 121.048 main 198 198 ______P___P___ -1 -13.0412 117.944 -11.4740 122.600 7 19 230
1923077S11123 1923 21 SI WA NOT_NAMED 1923-03-18 06:00:00 NR -12.5255 120.485 main 246 246 ______P___P___ -1 -13.1029 117.860 -12.0924 122.454 7 14 226
1923077S11123 1923 21 SI WA NOT_NAMED 1923-03-18 09:00:00 NR -12.9772 120.016 main 307 307 ______P___P___ -1 -13.1648 117.775 -12.7896 122.256 7 11 217
1923077S11123 1923 21 SI WA NOT_NAMED 1923-03-18 12:00:00 NR -13.3634 119.845 main 355 355 ______P___O___ -1 -13.2269 117.689 -13.5000 122.000 7 9 206
1923077S11123 1923 21 SI WA NOT_NAMED 1923-03-18 15:00:00 NR -13.7499 119.627 main 393 393 ______P___P___ -1 -13.2892 117.602 -14.2106 121.652 7 9 210
1923077S11123 1923 21 SI WA NOT_NAMED 1923-03-18 18:00:00 NR -14.1300 119.383 main 442 441 ______P___P___ -1 -13.3519 117.514 -14.9081 121.252 7 9 213
1923077S11123 1923 21 SI WA NOT_NAMED 1923-03-18 21:00:00 NR -14.4707 119.138 main 449 442 ______P___P___ -1 -13.4150 117.424 -15.5264 120.852 7 8 217
1923077S11123 1923 21 SI WA NOT_NAMED 1923-03-19 00:00:00 NR -14.7393 118.916 main 452 445 ______P___O___ -1 -13.4787 117.331 -16.0000 120.500 7 6 219
1923077S11123 1923 21 SI WA NOT_NAMED 1923-03-19 01:00:00 NR -14.8017 118.860 bom main 445 445 ______O___P___ -1 -13.5000 117.300 -16.1035 120.420 7 4 223
1923077S11123 1923 21 SI WA NOT_NAMED 1923-03-19 03:00:00 NR -14.8966 118.761 main 447 447 ______P___P___ -1 -13.5430 117.237 -16.2503 120.286 7 3 231
1923077S11123 1923 21 SI WA NOT_NAMED 1923-03-19 06:00:00 NR -14.9830 118.632 main 460 460 ______P___P___ -1 -13.6092 117.139 -16.3567 120.126 7 3 241
1923077S11123 1923 21 SI WA NOT_NAMED 1923-03-19 09:00:00 NR -15.0321 118.507 main 469 469 ______P___P___ -1 -13.6794 117.037 -16.3848 119.977 7 3 250
1923077S11123 1923 21 SI WA NOT_NAMED 1923-03-19 12:00:00 NR -15.0777 118.365 main 473 473 ______P___O___ -1 -13.7554 116.931 -16.4000 119.800 7 4 246
1923077S11123 1923 21 SI WA NOT_NAMED 1923-03-19 15:00:00 NR -15.1758 118.168 main 486 486 ______P___P___ -1 -13.8391 116.819 -16.5124 119.516 7 4 243
1923077S11123 1923 21 SI WA NOT_NAMED 1923-03-19 18:00:00 NR -15.2778 117.951 main 501 501 ______P___P___ -1 -13.9327 116.702 -16.6229 119.200 7 5 244
1923077S11123 1923 21 SI WA NOT_NAMED 1923-03-19 21:00:00 NR -15.3799 117.731 main 525 525 ______P___P___ -1 -14.0380 116.578 -16.7218 118.885 7 5 244
1923077S11123 1923 21 SI WA NOT_NAMED 1923-03-20 00:00:00 NR -15.4785 117.523 main 540 540 ______P___O___ -1 -14.1570 116.446 -16.8000 118.600 7 4 243
1923077S11123 1923 21 SI WA NOT_NAMED 1923-03-20 01:00:00 NR -15.5098 117.464 bom main 540 534 ______O___P___ -1 -14.2000 116.400 -16.8195 118.527 7 4 241
1923077S11123 1923 21 SI WA NOT_NAMED 1923-03-20 03:00:00 NR -15.5699 117.351 main 534 531 ______P___P___ -1 -14.2895 116.305 -16.8503 118.397 7 4 241
1923077S11123 1923 21 SI WA NOT_NAMED 1923-03-20 06:00:00 NR -15.6577 117.191 main 531 531 ______P___P___ -1 -14.4358 116.155 -16.8796 118.227 7 4 240
1923077S11123 1923 21 SI WA NOT_NAMED 1923-03-20 09:00:00 NR -15.7446 117.034 main 538 527 ______P___P___ -1 -14.5951 115.998 -16.8941 118.069 7 4 241
1923077S11123 1923 21 SI WA NOT_NAMED 1923-03-20 12:00:00 NR -15.8329 116.868 main 530 521 ______P___O___ -1 -14.7659 115.835 -16.9000 117.900 7 4 242
1923077S11123 1923 21 SI WA NOT_NAMED 1923-03-20 15:00:00 NR -15.9248 116.681 main 524 514 ______P___P___ -1 -14.9465 115.668 -16.9031 117.693 7 4 243
1923077S11123 1923 21 SI WA NOT_NAMED 1923-03-20 18:00:00 NR -16.0177 116.485 main 515 504 ______P___P___ -1 -15.1355 115.498 -16.8999 117.472 7 4 244
1923077S11123 1923 21 SI WA NOT_NAMED 1923-03-20 21:00:00 NR -16.1140 116.284 main 505 495 ______P___P___ -1 -15.3312 115.327 -16.8968 117.240 7 5 242
1923077S11123 1923 21 SI WA NOT_NAMED 1923-03-21 00:00:00 NR -16.2587 116.014 main 486 486 _____OP___O___ -1 -16.6000 115.500 99 9.90000 -15.5321 115.156 -16.9000 117.000 7 6 241
1923077S11123 1923 21 SI WA NOT_NAMED 1923-03-21 01:00:00 NR -16.3182 115.908 bom main 488 479 _____PO___P___ -1 -16.5860 115.499 99 -15.6000 115.100 -16.9025 116.920 7 5 242
1923077S11123 1923 21 SI WA NOT_NAMED 1923-03-21 03:00:00 NR -16.3812 115.774 main 479 479 _____PP___P___ -1 -16.5594 115.497 99 -15.7192 114.997 -16.9096 116.757 7 4 245
1923077S11123 1923 21 SI WA NOT_NAMED 1923-03-21 06:00:00 NR -16.4519 115.613 main 473 473 _____PP___P___ -1 -16.5274 115.488 99 -15.9008 114.845 -16.9274 116.507 7 3 245
1923077S11123 1923 21 SI WA NOT_NAMED 1923-03-21 09:00:00 NR -16.5191 115.471 main 475 468 _____PP___P___ -1 -16.5127 115.468 99 -16.0883 114.692 -16.9565 116.254 7 3 242
1923077S11123 1923 21 SI WA NOT_NAMED 1923-03-21 12:00:00 NR -16.6027 115.323 main 471 464 _____PP___O___ -1 -16.5239 115.431 99 -16.2843 114.538 -17.0000 116.000 7 3 238
1923077S11123 1923 21 SI WA NOT_NAMED 1923-03-21 15:00:00 NR -16.6977 115.172 main 464 457 _____PP___P___ -1 -16.5696 115.372 99 -16.4917 114.379 -17.0319 115.766 7 4 235
1923077S11123 1923 21 SI WA NOT_NAMED 1923-03-21 18:00:00 NR -16.8179 115.010 main 461 449 _____PP___P___ -1 -16.6584 115.284 99 -16.7131 114.215 -17.0821 115.529 7 4 230
1923077S11123 1923 21 SI WA NOT_NAMED 1923-03-21 21:00:00 NR -16.9722 114.828 main 449 439 _____PP___P___ -1 -16.7991 115.162 99 -16.9514 114.044 -17.1663 115.278 7 5 227
1923077S11123 1923 21 SI WA NOT_NAMED 1923-03-22 00:00:00 NR -17.1697 114.621 main 439 439 _____OP___O___ -1 -17.0000 115.000 99 9.90000 -17.2092 113.863 -17.3000 115.000 7 6 225
1923077S11123 1923 21 SI WA NOT_NAMED 1923-03-22 01:00:00 NR -17.2448 114.542 bom main 445 431 _____PO___P___ -1 -17.0817 114.936 99 -17.3000 113.800 -17.3526 114.889 7 7 225
1923077S11123 1923 21 SI WA NOT_NAMED 1923-03-22 03:00:00 NR -17.4107 114.369 main 431 420 _____PP___P___ -1 -17.2661 114.795 99 -17.4904 113.659 -17.4756 114.655 7 7 224
1923077S11123 1923 21 SI WA NOT_NAMED 1923-03-22 06:00:00 NR -17.6948 114.092 main 420 404 _____PP___P___ -1 -17.5873 114.555 99 -17.7941 113.435 -17.7030 114.285 7 8 222
1923077S11123 1923 21 SI WA NOT_NAMED 1923-03-22 09:00:00 NR -18.0149 113.806 main 410 395 _____PP___P___ -1 -17.9498 114.291 99 -18.1163 113.203 -17.9788 113.923 7 9 219
1923077S11123 1923 21 SI WA NOT_NAMED 1923-03-22 12:00:00 NR -18.3643 113.526 main 392 365 _____PP___O___ -1 -18.3397 114.013 99 -18.4533 112.966 -18.3000 113.600 7 9 215
1923077S11123 1923 21 SI WA NOT_NAMED 1923-03-22 15:00:00 NR -18.7434 113.267 main 365 326 _____PP___P___ -1 -18.7433 113.734 99 -18.8017 112.729 -18.6851 113.337 7 9 211
1923077S11123 1923 21 SI WA NOT_NAMED 1923-03-22 18:00:00 NR -19.1374 113.026 main 330 295 _____PP___P___ -1 -19.1470 113.465 99 -19.1580 112.496 -19.1072 113.118 7 9 209
1923077S11123 1923 21 SI WA NOT_NAMED 1923-03-22 21:00:00 NR -19.5271 112.810 main 295 266 _____PP___P___ -1 -19.5370 113.216 99 -19.5185 112.274 -19.5258 112.940 7 9 207
1923077S11123 1923 21 SI WA NOT_NAMED 1923-03-23 00:00:00 NR -19.8933 112.622 main 266 257 _____OP___O___ -1 -19.9000 113.000 99 9.90000 -19.8799 112.065 -19.9000 112.800 7 8 206
1923077S11123 1923 21 SI WA NOT_NAMED 1923-03-23 01:00:00 NR -19.9909 112.569 bom main 257 254 _____PO___P___ -1 -19.9730 112.950 99 -20.0000 112.000 -19.9996 112.758 7 6 207
1923077S11123 1923 21 SI WA NOT_NAMED 1923-03-23 03:00:00 NR -20.1569 112.474 main 245 235 _____PP___P___ -1 -20.1052 112.861 99 -20.1864 111.873 -20.1792 112.688 7 5 207
1923077S11123 1923 21 SI WA NOT_NAMED 1923-03-23 06:00:00 NR -20.3827 112.353 main 235 228 _____PP___P___ -1 -20.2800 112.753 99 -20.4585 111.694 -20.4098 112.612 7 5 205
1923077S11123 1923 21 SI WA NOT_NAMED 1923-03-23 09:00:00 NR -20.5960 112.251 main 228 223 _____PP___P___ -1 -20.4441 112.669 99 -20.7333 111.528 -20.6105 112.554 7 5 203
1923077S11123 1923 21 SI WA NOT_NAMED 1923-03-23 12:00:00 NR -20.8139 112.160 main 223 220 _____PP___O___ -1 -20.6174 112.604 99 -21.0244 111.376 -20.8000 112.500 7 5 201
1923077S11123 1923 21 SI WA NOT_NAMED 1923-03-23 15:00:00 NR -21.0303 112.073 main 220 215 _____PP___P___ -1 -20.8198 112.551 99 -21.3451 111.240 -20.9260 112.429 7 5 199
1923077S11123 1923 21 SI WA NOT_NAMED 1923-03-23 18:00:00 NR -21.2791 111.993 main 215 207 _____PP___P___ -1 -21.0711 112.503 99 -21.7087 111.118 -21.0576 112.357 7 6 195
1923077S11123 1923 21 SI WA NOT_NAMED 1923-03-23 21:00:00 NR -21.5935 111.917 main 207 187 _____PP___P___ -1 -21.3912 112.455 99 -22.1288 111.014 -21.2604 112.282 7 7 191
1923077S11123 1923 21 SI WA NOT_NAMED 1923-03-24 00:00:00 NR -22.0063 111.842 main 196 190 _____OP___O___ -1 -21.8000 112.400 99 9.90000 -22.6188 110.925 -21.6000 112.200 7 9 190
1923077S11123 1923 21 SI WA NOT_NAMED 1923-03-24 01:00:00 NR -22.1817 111.806 bom main 190 186 _____PO___P___ -1 -21.9875 112.347 99 -22.8000 110.900 -21.7577 112.170 7 12 191
1923077S11123 1923 21 SI WA NOT_NAMED 1923-03-24 03:00:00 NR -22.5746 111.724 main 194 194 _____PP___P___ -1 -22.3973 112.235 99 -23.1985 110.829 -22.1281 112.107 7 13 190
1923077S11123 1923 21 SI WA NOT_NAMED 1923-03-24 06:00:00 NR -23.2446 111.601 main 208 198 _____PP___P___ -1 -23.0858 112.055 99 -23.8502 110.742 -22.7979 112.007 7 14 189
1923077S11123 1923 21 SI WA NOT_NAMED 1923-03-24 09:00:00 NR -23.9854 111.490 main 197 192 _____PP___P___ -1 -23.8418 111.876 99 -24.5456 110.689 -23.5688 111.904 7 15 187
1923077S11123 1923 21 SI WA NOT_NAMED 1923-03-24 12:00:00 NR -24.7675 111.401 main 206 206 _____PP___O___ -1 -24.6413 111.716 99 -25.2611 110.687 -24.4000 111.800 7 16 186
1923077S11123 1923 21 SI WA NOT_NAMED 1923-03-24 13:00:00 NR -25.0324 111.378 bom main 212 208 _____PO___P___ -1 -24.9134 111.669 99 -25.5000 110.700 -24.6837 111.766 7 15 186
1923077S11123 1923 21 SI WA NOT_NAMED 1923-03-24 15:00:00 NR -25.5300 111.316 main 210 199 _____PP___P___ -1 -25.4606 111.590 99 -25.8724 110.661 -25.2572 111.698 7 15 186
1923077S11123 1923 21 SI WA NOT_NAMED 1923-03-24 18:00:00 NR -26.2939 111.224 main 209 209 _____PP___P___ -1 -26.2758 111.517 99 -26.4352 110.650 -26.1297 111.599 7 15 183
1923077S11123 1923 21 SI WA NOT_NAMED 1923-03-24 21:00:00 NR -27.0656 111.214 main 226 226 _____PP___P___ -1 -27.0635 111.514 99 -27.0943 110.773 -27.0124 111.499 7 16 175
1923077S11123 1923 21 SI WA NOT_NAMED 1923-03-25 00:00:00 NR -27.8788 111.364 main 255 255 _____OP___O___ -1 -27.8000 111.600 99 9.90000 -27.9523 111.119 -27.9000 111.400 7 17 168
1923077S11123 1923 21 SI WA NOT_NAMED 1923-03-25 01:00:00 NR -28.1651 111.476 bom main 258 243 _____PO_______ -1 -28.0303 111.652 99 -28.3000 111.300 7 19 157
1923077S11123 1923 21 SI WA NOT_NAMED 1923-03-25 03:00:00 NR -28.7381 111.782 main 243 236 _____PP_______ -1 -28.4673 111.789 99 -29.0991 111.774 7 19 153
1923077S11123 1923 21 SI WA NOT_NAMED 1923-03-25 06:00:00 NR -29.5432 112.285 main 236 221 _____PP_______ -1 -29.0690 112.074 99 -30.4915 112.706 7 16 149
1923077S11123 1923 21 SI WA NOT_NAMED 1923-03-25 09:00:00 NR -30.0913 112.715 bom main 221 202 _____PO_______ -1 -29.6141 112.443 99 -32.0000 113.800 7 8 138
1923077S11123 1923 21 SI WA NOT_NAMED 1923-03-25 12:00:00 NR -30.1115 112.884 main 202 162 _____P________ -1 -30.1115 112.884 99 8 130
1923077S11123 1923 21 SI WA NOT_NAMED 1923-03-25 15:00:00 NR -30.5699 113.383 main 162 127 _____P________ -1 -30.5699 113.383 99 13 135
1923077S11123 1923 21 SI WA NOT_NAMED 1923-03-25 18:00:00 NR -30.9982 113.928 main 127 91 _____P________ -1 -30.9982 113.928 99 13 131
1923077S11123 1923 21 SI WA NOT_NAMED 1923-03-25 21:00:00 NR -31.4052 114.505 main 91 56 _____P________ -1 -31.4052 114.505 99 13 129
1923077S11123 1923 21 SI WA NOT_NAMED 1923-03-26 00:00:00 NR -31.8000 115.100 main 56 _____O________ -1 -31.8000 115.100 99 9.90000 13 128

IBTrACS Databaseについて

本データベースは、米国NOAAが公開する1842年以降の世界の熱帯低気圧のベストトラックデータアーカイブInternational Best Track Archive for Climate Stewardship (IBTrACS)を、ウェブで閲覧しやすい形式に変換したものです。

最終更新日:2021-12-03